New Braunfels, TX (78135)

6:33 AM CDT on August 28, 2016 (GMT -0500)
MesoWest | | Change Station

Elev 634 ft 29.70 °N, 98.12 °W | Updated 58 minutes ago

Clear
Clear
75.0 °F
Feels Like 75.0 °F
N
0.0
Wind Variable Wind from North
Gusts 0.0 mph

Today
High -- | Low -- °F
--% Chance of Precip.
Yesterday
High -- | Low -- °F
Precip. -- in
Pressure 29.96 in
Visibility 10.0 miles
Clouds Clear
Dew Point Not available.
Humidity Not available.
Rainfall in
Snow Depth Not available.
7:07 AM 7:58 PM
Waning Crescent, 16% visible
METAR KBAZ 281051Z AUTO 03003KT 10SM CLR 22/21 A2998 RMK AO2 SLP143 T02170206
Pressure 29.96 in
Visibility 10.0 miles
Clouds Clear
Dew Point Not available.
Humidity Not available.
Rainfall in
Snow Depth Not available.
7:07 AM 7:58 PM
Waning Crescent, 16% visible
METAR KBAZ 281051Z AUTO 03003KT 10SM CLR 22/21 A2998 RMK AO2 SLP143 T02170206

10-Day Weather Forecast

Almanac

Astronomy

Aug. 28, 2016 Rise Set
Actual Time
Civil Twilight
Nautical Twilight
Astronomical Twilight
Moon
Length of Visible Light
Length of Day
Tomorrow will be .
, % of the Moon is Illuminated

Today's Extremes

State Highs State Lows

Community

WunderPhotos

Upload Photos

1,935,545 photos uploaded!

WunderBlog® & News

Nearby

Air Quality

  Air Quality AQ Index Pollutant
Not available.

Snow Depth

Station Depth Elevation

Earthquake Activity

City Distance Mag. Time & Date
Minimum magnitude displayed is 2.5.

Coastal Water Temperatures

Place Temperature

Stations

Nearby Weather Stations

Station Location Temp. Windchill Dew Point Humidity Wind Precip. Elev Updated Type
                   

Watches & Warnings

There are currently no watches in effect.